createdAt,value
2023-02-14T00:01:16.119Z,94.47
2023-02-14T00:03:49.617Z,183.37
2023-02-14T00:06:20.054Z,165.77
2023-02-14T00:08:52.417Z,172.07
2023-02-14T00:11:22.634Z,219.43
2023-02-14T00:14:04.621Z,143.40
2023-02-14T00:16:34.463Z,218.53
2023-02-14T00:19:06.854Z,181.60
2023-02-14T00:21:39.771Z,141.00
2023-02-14T00:24:12.091Z,118.53
2023-02-14T00:26:42.252Z,135.90
2023-02-14T00:29:14.196Z,97.17
2023-02-14T00:31:44.389Z,130.17
2023-02-14T00:34:18.114Z,97.63
2023-02-14T00:36:48.601Z,118.70
2023-02-14T00:39:19.081Z,71.33
2023-02-14T00:41:49.309Z,71.63
2023-02-14T00:44:19.447Z,82.73
2023-02-14T00:46:49.256Z,97.40
2023-02-14T00:49:21.657Z,33.67
2023-02-14T00:51:51.426Z,78.07
2023-02-14T00:54:21.214Z,50.07
2023-02-14T00:56:50.980Z,38.80
2023-02-14T00:59:20.980Z,58.00
2023-02-14T01:01:50.734Z,50.87
2023-02-14T01:04:23.115Z,32.90
2023-02-14T01:06:52.853Z,35.77
2023-02-14T01:09:22.621Z,50.80
2023-02-14T01:11:52.387Z,30.20
2023-02-14T01:14:22.184Z,43.93
2023-02-14T01:16:52.040Z,80.83
2023-02-14T01:19:24.508Z,96.77
2023-02-14T01:21:54.289Z,129.53
2023-02-14T01:24:25.263Z,26.00
2023-02-14T01:26:55.052Z,22.30
2023-02-14T01:29:24.823Z,24.63
2023-02-14T01:31:54.620Z,20.00
2023-02-14T01:34:26.991Z,23.10
2023-02-14T01:36:56.986Z,20.40
2023-02-14T01:39:26.759Z,21.47
2023-02-14T01:41:56.783Z,18.70
2023-02-14T01:45:09.430Z,20.43
2023-02-14T01:47:43.613Z,20.37
2023-02-14T01:50:20.184Z,27.67
2023-02-14T01:52:53.876Z,21.33
2023-02-14T01:55:26.623Z,49.20
2023-02-14T01:58:00.452Z,19.33
2023-02-14T02:00:42.968Z,20.47
2023-02-14T02:03:16.379Z,21.90
2023-02-14T02:05:54.001Z,59.17
2023-02-14T02:08:24.239Z,17.73
2023-02-14T02:10:54.001Z,31.23
2023-02-14T02:13:25.680Z,26.30
2023-02-14T02:16:20.645Z,32.73
2023-02-14T02:19:05.547Z,16.23
2023-02-14T02:22:13.795Z,46.57
2023-02-14T02:24:51.447Z,33.97
2023-02-14T02:27:29.193Z,35.17
2023-02-14T02:30:40.249Z,57.40
2023-02-14T02:33:46.556Z,38.07
2023-02-14T02:36:39.289Z,32.90
2023-02-14T02:39:19.827Z,24.07
2023-02-14T02:42:08.982Z,17.37
2023-02-14T02:44:47.711Z,37.87
2023-02-14T02:47:25.393Z,36.17
2023-02-14T02:50:15.999Z,24.23
2023-02-14T02:53:07.117Z,16.23
2023-02-14T02:55:59.266Z,22.17
2023-02-14T02:58:33.482Z,19.57
2023-02-14T03:01:06.489Z,21.10
2023-02-14T03:03:50.550Z,17.20
2023-02-14T03:06:20.305Z,17.43
2023-02-14T03:08:52.693Z,27.80
2023-02-14T03:11:22.571Z,19.57
2023-02-14T03:14:02.692Z,16.70
2023-02-14T03:17:00.371Z,20.73
2023-02-14T03:20:02.558Z,16.30
2023-02-14T03:22:45.519Z,15.40
2023-02-14T03:25:34.722Z,16.90
2023-02-14T03:28:15.043Z,18.10
2023-02-14T03:30:51.859Z,16.90
2023-02-14T03:33:25.958Z,17.37
2023-02-14T03:36:02.234Z,17.20
2023-02-14T03:38:35.966Z,15.47
2023-02-14T03:41:14.176Z,21.20
2023-02-14T03:43:48.035Z,16.57
2023-02-14T03:46:23.300Z,18.50
2023-02-14T03:48:55.729Z,17.80
2023-02-14T03:51:27.172Z,16.77
2023-02-14T03:54:00.943Z,17.13
2023-02-14T03:56:38.502Z,18.00
2023-02-14T03:59:11.828Z,19.07
2023-02-14T04:01:49.344Z,15.97
2023-02-14T04:04:23.150Z,14.90
2023-02-14T04:06:53.210Z,18.60
2023-02-14T04:09:22.960Z,16.40
2023-02-14T04:11:55.359Z,15.47
2023-02-14T04:14:29.510Z,19.90
2023-02-14T04:17:11.766Z,18.07
2023-02-14T04:19:41.524Z,16.93
2023-02-14T04:22:11.314Z,18.50
2023-02-14T04:24:41.213Z,16.70
2023-02-14T04:27:13.646Z,34.40
2023-02-14T04:29:46.053Z,19.37
2023-02-14T04:32:18.281Z,23.10
2023-02-14T04:34:48.792Z,19.67
2023-02-14T04:37:21.494Z,18.60
2023-02-14T04:39:51.271Z,20.33
2023-02-14T04:42:23.733Z,17.97
2023-02-14T04:44:53.505Z,19.87
2023-02-14T04:47:23.507Z,16.73
2023-02-14T04:49:53.479Z,16.13
2023-02-14T04:52:23.341Z,19.33
2023-02-14T04:54:53.158Z,16.03
2023-02-14T04:57:25.601Z,15.33
2023-02-14T04:59:55.354Z,14.53
2023-02-14T05:02:25.177Z,14.37
2023-02-14T05:04:55.142Z,16.70
2023-02-14T05:07:24.907Z,16.03
2023-02-14T05:09:54.696Z,16.87
2023-02-14T05:12:27.063Z,17.23
2023-02-14T05:14:57.771Z,15.23
2023-02-14T05:17:27.617Z,16.23
2023-02-14T05:19:57.366Z,17.43
2023-02-14T05:22:27.140Z,17.43
2023-02-14T05:24:56.887Z,19.57
2023-02-14T05:27:29.315Z,19.30
2023-02-14T05:29:59.142Z,20.47
2023-02-14T05:32:28.891Z,19.17
2023-02-14T05:35:00.987Z,19.90
2023-02-14T05:37:30.896Z,18.67
2023-02-14T05:40:00.658Z,18.90
2023-02-14T05:42:33.134Z,17.70
2023-02-14T05:45:02.923Z,20.30
2023-02-14T05:47:32.667Z,18.47
2023-02-14T05:50:02.435Z,20.60
2023-02-14T05:52:32.399Z,20.27
2023-02-14T05:55:02.234Z,21.20
2023-02-14T05:57:34.640Z,18.13
2023-02-14T06:00:05.632Z,20.17
2023-02-14T06:02:35.664Z,19.07
2023-02-14T06:05:05.433Z,21.70
2023-02-14T06:07:35.204Z,20.93
2023-02-14T06:10:04.976Z,22.47
2023-02-14T06:12:37.437Z,21.27
2023-02-14T06:15:07.964Z,19.90
2023-02-14T06:17:37.807Z,19.97
2023-02-14T06:20:09.814Z,19.73
2023-02-14T06:22:40.119Z,23.23
2023-02-14T06:25:10.319Z,21.90
2023-02-14T06:27:42.779Z,18.83
2023-02-14T06:30:14.881Z,20.63
2023-02-14T06:32:44.750Z,19.60
2023-02-14T06:35:14.602Z,20.13
2023-02-14T06:37:45.450Z,19.30
2023-02-14T06:40:17.080Z,21.37
2023-02-14T06:42:49.506Z,20.67
2023-02-14T06:45:19.359Z,19.67
2023-02-14T06:47:49.219Z,19.33
2023-02-14T06:50:19.207Z,19.27
2023-02-14T06:52:48.994Z,21.20
2023-02-14T06:55:18.993Z,18.63
2023-02-14T06:57:51.362Z,21.07
2023-02-14T07:00:22.846Z,20.23
2023-02-14T07:02:52.796Z,22.40
2023-02-14T07:05:22.896Z,21.70
2023-02-14T07:07:52.863Z,20.13
2023-02-14T07:10:22.803Z,19.93
2023-02-14T07:12:56.180Z,21.60
2023-02-14T07:15:26.310Z,17.80
2023-02-14T07:17:56.558Z,23.37
2023-02-14T07:20:26.385Z,21.47
2023-02-14T07:22:56.611Z,26.40
2023-02-14T07:25:28.411Z,27.07
2023-02-14T07:28:00.837Z,32.40
2023-02-14T07:30:30.813Z,24.03
2023-02-14T07:33:01.007Z,33.70
2023-02-14T07:35:30.815Z,51.33
2023-02-14T07:38:00.578Z,21.57
2023-02-14T07:40:30.398Z,20.17
2023-02-14T07:43:02.976Z,21.77
2023-02-14T07:45:32.812Z,23.57
2023-02-14T07:48:07.834Z,25.40
2023-02-14T07:50:37.816Z,22.87
2023-02-14T07:53:08.677Z,51.73
2023-02-14T07:55:39.734Z,25.00
2023-02-14T07:58:12.139Z,18.97
2023-02-14T08:00:41.913Z,18.60
2023-02-14T08:03:11.748Z,18.60
2023-02-14T08:05:41.857Z,20.60
2023-02-14T08:08:11.647Z,17.67
2023-02-14T08:10:41.434Z,21.07
2023-02-14T08:13:13.832Z,16.70
2023-02-14T08:15:58.484Z,27.70
2023-02-14T08:18:28.886Z,30.10
2023-02-14T08:20:59.133Z,17.87
2023-02-14T08:23:29.261Z,16.37
2023-02-14T08:25:59.264Z,17.23
2023-02-14T08:28:33.375Z,20.57
2023-02-14T08:31:04.138Z,16.63
2023-02-14T08:33:34.156Z,29.27
2023-02-14T08:36:04.065Z,17.57
2023-02-14T08:38:33.859Z,33.43
2023-02-14T08:41:08.002Z,40.33
2023-02-14T08:43:41.048Z,20.17
2023-02-14T08:46:11.227Z,18.90
2023-02-14T08:48:41.351Z,22.70
2023-02-14T08:51:12.644Z,17.70
2023-02-14T08:53:42.862Z,32.00
2023-02-14T08:56:14.536Z,32.83
2023-02-14T08:58:47.052Z,17.57
2023-02-14T09:01:19.727Z,18.27
2023-02-14T09:03:49.888Z,19.77
2023-02-14T09:06:20.282Z,19.13
2023-02-14T09:08:50.077Z,22.30
2023-02-14T09:11:22.451Z,20.13
2023-02-14T09:13:56.067Z,24.30
2023-02-14T09:16:27.140Z,21.20
2023-02-14T09:18:57.801Z,22.30
2023-02-14T09:21:30.712Z,23.50
2023-02-14T09:24:00.936Z,24.97
2023-02-14T09:26:31.162Z,22.50
2023-02-14T09:29:03.769Z,20.77
2023-02-14T09:31:33.682Z,22.10
2023-02-14T09:34:15.980Z,21.33
2023-02-14T09:36:45.776Z,21.13
2023-02-14T09:39:15.556Z,20.73
2023-02-14T09:42:20.775Z,23.37
2023-02-14T09:44:57.075Z,21.10
2023-02-14T09:47:37.056Z,23.10
2023-02-14T09:50:08.922Z,20.37
2023-02-14T09:52:38.813Z,22.57
2023-02-14T09:55:17.576Z,21.27
2023-02-14T09:58:01.357Z,21.53
2023-02-14T10:00:39.541Z,22.07
2023-02-14T10:03:32.577Z,21.87
2023-02-14T10:06:07.848Z,18.10
2023-02-14T10:08:52.180Z,20.50
2023-02-14T10:11:25.718Z,20.33
2023-02-14T10:14:00.388Z,22.27
2023-02-14T10:16:36.779Z,22.23
2023-02-14T10:19:10.586Z,23.20
2023-02-14T10:21:46.442Z,22.33
2023-02-14T10:24:22.332Z,24.40
2023-02-14T10:26:53.430Z,24.53
2023-02-14T10:29:23.576Z,22.53
2023-02-14T10:32:00.727Z,22.07
2023-02-14T10:34:38.426Z,21.97
2023-02-14T10:37:32.135Z,23.67
2023-02-14T10:40:20.829Z,21.53
2023-02-14T10:42:59.114Z,23.87
2023-02-14T10:45:37.960Z,25.53
2023-02-14T10:48:19.943Z,26.93
2023-02-14T10:50:55.576Z,24.63
2023-02-14T10:53:36.625Z,24.97
2023-02-14T10:56:11.548Z,20.40
2023-02-14T10:58:43.010Z,23.47
2023-02-14T11:01:15.606Z,22.33
2023-02-14T11:03:58.647Z,22.60
2023-02-14T11:06:28.487Z,22.53
2023-02-14T11:08:58.312Z,24.60
2023-02-14T11:11:33.191Z,24.73
2023-02-14T11:14:03.094Z,22.10
2023-02-14T11:16:34.533Z,24.67
2023-02-14T11:19:23.592Z,28.87
2023-02-14T11:21:54.897Z,26.37
2023-02-14T11:24:30.516Z,23.97
2023-02-14T11:27:02.824Z,26.03
2023-02-14T11:29:36.118Z,22.50
2023-02-14T11:32:13.451Z,24.40
2023-02-14T11:34:51.217Z,26.63
2023-02-14T11:37:30.279Z,24.83
2023-02-14T11:40:02.545Z,27.37
2023-02-14T11:42:38.766Z,26.03
2023-02-14T11:45:09.843Z,29.40
2023-02-14T11:47:43.002Z,24.83
2023-02-14T11:50:26.165Z,25.50
2023-02-14T11:52:59.238Z,25.00
2023-02-14T11:55:31.408Z,26.20
2023-02-14T11:58:01.933Z,25.57
2023-02-14T12:00:32.482Z,28.23
2023-02-14T12:03:05.668Z,27.43
2023-02-14T12:05:48.765Z,28.33
2023-02-14T12:08:26.608Z,26.40
2023-02-14T12:11:05.543Z,24.50
2023-02-14T12:13:36.487Z,27.23
2023-02-14T12:16:06.464Z,27.70
2023-02-14T12:18:46.560Z,31.23
2023-02-14T12:21:45.124Z,28.90
2023-02-14T12:24:21.534Z,28.73
2023-02-14T12:26:58.280Z,30.07
2023-02-14T12:29:35.642Z,27.47
2023-02-14T12:32:16.056Z,31.47
2023-02-14T12:34:45.890Z,29.80
2023-02-14T12:37:26.559Z,30.40
2023-02-14T12:40:14.360Z,29.23
2023-02-14T12:42:57.429Z,31.93
2023-02-14T12:45:33.466Z,30.53
2023-02-14T12:48:16.609Z,34.60
2023-02-14T12:50:55.505Z,28.27
2023-02-14T12:53:45.636Z,27.67
2023-02-14T12:56:29.346Z,28.27
2023-02-14T12:59:10.850Z,27.17
2023-02-14T13:02:01.508Z,26.43
2023-02-14T13:04:51.244Z,31.73
2023-02-14T13:07:38.374Z,29.80
2023-02-14T13:10:18.344Z,27.23
2023-02-14T13:12:55.557Z,26.63
2023-02-14T13:15:37.458Z,28.33
2023-02-14T13:18:14.022Z,28.00
2023-02-14T13:20:51.724Z,30.10
2023-02-14T13:23:27.682Z,35.07
2023-02-14T13:26:06.789Z,30.17
2023-02-14T13:28:38.969Z,32.17
2023-02-14T13:31:09.407Z,32.30
2023-02-14T13:33:44.010Z,30.33
2023-02-14T13:36:16.332Z,35.73
2023-02-14T13:38:50.244Z,31.93
2023-02-14T13:41:24.407Z,35.40
2023-02-14T13:43:56.484Z,35.37
2023-02-14T13:46:52.200Z,33.40
2023-02-14T13:49:33.301Z,34.83
2023-02-14T13:52:05.350Z,35.63
2023-02-14T13:54:39.026Z,31.30
2023-02-14T13:57:31.810Z,28.63
2023-02-14T14:00:40.540Z,30.70
2023-02-14T14:03:15.472Z,35.50
2023-02-14T14:06:07.588Z,31.17
2023-02-14T14:08:54.462Z,31.00
2023-02-14T14:12:02.526Z,28.43
2023-02-14T14:14:41.331Z,30.70
2023-02-14T14:17:26.393Z,32.57
2023-02-14T14:19:58.099Z,31.27
2023-02-14T14:22:29.279Z,34.13
2023-02-14T14:25:02.388Z,34.60
2023-02-14T14:27:37.789Z,33.93
2023-02-14T14:30:21.151Z,30.67
2023-02-14T14:32:51.901Z,35.10
2023-02-14T14:35:23.954Z,33.33
2023-02-14T14:37:55.796Z,28.83
2023-02-14T14:40:28.929Z,26.23
2023-02-14T14:43:03.456Z,26.60
2023-02-14T14:45:36.275Z,32.20
2023-02-14T14:48:13.803Z,29.03
2023-02-14T14:50:50.445Z,30.93
2023-02-14T14:53:25.667Z,28.40
2023-02-14T14:55:56.075Z,32.53
2023-02-14T14:58:42.040Z,32.43
2023-02-14T15:01:32.664Z,29.20
2023-02-14T15:04:13.796Z,29.43
2023-02-14T15:06:44.846Z,30.60
2023-02-14T15:09:16.901Z,31.37
2023-02-14T15:12:00.963Z,29.57
2023-02-14T15:14:33.344Z,32.00
2023-02-14T15:17:08.170Z,29.87
2023-02-14T15:19:41.894Z,31.37
2023-02-14T15:22:22.784Z,30.93
2023-02-14T15:24:52.843Z,33.23
2023-02-14T15:27:24.695Z,32.37
2023-02-14T15:30:00.178Z,33.10
2023-02-14T15:32:35.548Z,37.27
2023-02-14T15:35:07.944Z,32.00
2023-02-14T15:37:38.136Z,35.80
2023-02-14T15:40:10.545Z,30.77
2023-02-14T15:42:46.468Z,33.80
2023-02-14T15:45:26.213Z,39.03
2023-02-14T15:48:08.670Z,33.57
2023-02-14T15:50:54.951Z,35.03
2023-02-14T15:53:42.109Z,31.93
2023-02-14T15:56:26.808Z,28.93
2023-02-14T15:59:02.850Z,33.33
2023-02-14T16:01:34.233Z,28.17
2023-02-14T16:04:09.909Z,30.63
2023-02-14T16:06:44.754Z,32.33
2023-02-14T16:09:28.990Z,32.03
2023-02-14T16:11:59.375Z,32.40
2023-02-14T16:14:36.870Z,31.03
2023-02-14T16:17:09.267Z,34.67
2023-02-14T16:19:48.279Z,34.03
2023-02-14T16:22:32.204Z,34.13
2023-02-14T16:25:02.028Z,34.70
2023-02-14T16:27:31.970Z,36.70
2023-02-14T16:30:01.799Z,32.57
2023-02-14T16:32:31.943Z,31.50
2023-02-14T16:35:04.503Z,36.23
2023-02-14T16:37:36.162Z,33.73
2023-02-14T16:40:06.674Z,34.03
2023-02-14T16:42:41.764Z,37.17
2023-02-14T16:45:18.403Z,37.43
2023-02-14T16:47:49.571Z,32.27
2023-02-14T16:50:26.525Z,35.93
2023-02-14T16:52:59.133Z,36.57
2023-02-14T16:55:31.573Z,39.70
2023-02-14T16:58:03.920Z,41.27
2023-02-14T17:00:33.971Z,40.23
2023-02-14T17:03:11.159Z,37.47
2023-02-14T17:05:44.289Z,34.03
2023-02-14T17:08:16.416Z,35.17
2023-02-14T17:10:48.686Z,35.50
2023-02-14T17:13:22.215Z,38.23
2023-02-14T17:15:53.286Z,36.17
2023-02-14T17:18:24.581Z,35.73
2023-02-14T17:20:57.520Z,33.20
2023-02-14T17:23:27.940Z,29.63
2023-02-14T17:25:57.800Z,39.00
2023-02-14T17:28:27.847Z,35.10
2023-02-14T17:31:00.460Z,35.93
2023-02-14T17:33:30.600Z,35.80
2023-02-14T17:36:11.936Z,36.07
2023-02-14T17:38:43.570Z,37.13
2023-02-14T17:41:15.306Z,41.70
2023-02-14T17:43:45.557Z,37.97
2023-02-14T17:46:16.263Z,38.83
2023-02-14T17:48:46.397Z,37.73
2023-02-14T17:51:21.095Z,38.90
2023-02-14T17:53:51.302Z,37.77
2023-02-14T17:59:09.572Z,40.10
2023-02-14T18:01:39.529Z,42.10
2023-02-14T18:04:10.394Z,37.17
2023-02-14T18:06:43.295Z,33.87
2023-02-14T18:09:14.193Z,35.00
2023-02-14T18:11:44.626Z,32.83
2023-02-14T18:14:14.380Z,39.07
2023-02-14T18:16:44.384Z,39.33
2023-02-14T18:19:16.066Z,32.57
2023-02-14T18:21:48.615Z,36.60
2023-02-14T18:24:18.447Z,32.40
2023-02-14T18:26:48.686Z,32.70
2023-02-14T18:29:18.446Z,35.53
2023-02-14T18:31:48.293Z,36.27
2023-02-14T18:34:18.098Z,32.80
2023-02-14T18:36:50.438Z,34.10
2023-02-14T18:39:20.232Z,32.57
2023-02-14T18:41:53.274Z,32.40
2023-02-14T18:44:23.609Z,29.10
2023-02-14T18:46:53.361Z,30.80
2023-02-14T18:49:23.370Z,31.10
2023-02-14T18:52:00.682Z,33.07
2023-02-14T18:54:30.528Z,29.00
2023-02-14T18:57:00.296Z,25.80
2023-02-14T18:59:30.180Z,27.90
2023-02-14T19:02:00.049Z,23.70
2023-02-14T19:04:29.871Z,24.33
2023-02-14T19:07:04.560Z,19.13
2023-02-14T19:09:39.120Z,17.57
2023-02-14T19:12:09.836Z,16.73
2023-02-14T19:14:40.902Z,14.97
2023-02-14T19:17:12.060Z,17.23
2023-02-14T19:19:42.452Z,14.83
2023-02-14T19:22:14.841Z,15.47
2023-02-14T19:24:44.952Z,20.17
2023-02-14T19:27:15.115Z,10.90
2023-02-14T19:29:45.072Z,10.63
2023-02-14T19:32:14.962Z,12.80
2023-02-14T19:34:44.765Z,10.13
2023-02-14T19:37:17.120Z,9.73
2023-02-14T19:39:46.938Z,8.77
2023-02-14T19:42:16.826Z,9.77
2023-02-14T19:44:47.491Z,8.73
2023-02-14T19:47:30.934Z,9.47
2023-02-14T19:50:03.735Z,9.20
2023-02-14T19:52:36.228Z,8.43
2023-02-14T19:55:07.624Z,10.73
2023-02-14T19:57:37.397Z,8.20
2023-02-14T20:00:11.394Z,8.53
2023-02-14T20:02:45.902Z,7.30
2023-02-14T20:05:15.763Z,7.53
2023-02-14T20:07:49.316Z,7.60
2023-02-14T20:10:19.698Z,9.57
2023-02-14T20:12:49.744Z,9.43
2023-02-14T20:15:19.573Z,11.93
2023-02-14T20:17:49.451Z,11.90
2023-02-14T20:20:19.410Z,14.33
2023-02-14T20:22:51.863Z,13.97
2023-02-14T20:25:22.361Z,15.40
2023-02-14T20:27:56.502Z,12.87
2023-02-14T20:30:33.789Z,13.60
2023-02-14T20:33:11.375Z,11.03
2023-02-14T20:35:45.187Z,11.53
2023-02-14T20:38:19.682Z,10.83
2023-02-14T20:40:49.590Z,8.67
2023-02-14T20:43:19.458Z,8.03
2023-02-14T20:45:49.634Z,8.20
2023-02-14T20:48:19.947Z,9.57
2023-02-14T20:50:50.041Z,10.17
2023-02-14T20:53:27.789Z,9.00
2023-02-14T20:55:58.079Z,8.20
2023-02-14T20:58:29.579Z,9.87
2023-02-14T21:01:00.397Z,7.87
2023-02-14T21:03:32.501Z,7.50
2023-02-14T21:06:05.746Z,8.10
2023-02-14T21:08:39.407Z,8.17
2023-02-14T21:11:10.161Z,7.37
2023-02-14T21:13:40.289Z,12.93
2023-02-14T21:16:15.125Z,14.43
2023-02-14T21:18:59.429Z,13.67
2023-02-14T21:21:40.922Z,12.67
2023-02-14T21:24:53.214Z,9.57
2023-02-14T21:27:29.056Z,11.27
2023-02-14T21:30:00.534Z,11.33
2023-02-14T21:32:33.494Z,13.43
2023-02-14T21:35:03.749Z,12.70
2023-02-14T21:37:35.475Z,12.30
2023-02-14T21:40:06.450Z,15.97
2023-02-14T21:42:39.077Z,16.87
2023-02-14T21:45:22.129Z,15.63
2023-02-14T21:48:06.906Z,10.90
2023-02-14T21:50:36.756Z,11.13
2023-02-14T21:53:10.172Z,15.77
2023-02-14T21:55:43.049Z,15.50
2023-02-14T21:58:15.559Z,18.53
2023-02-14T22:00:51.131Z,15.80
2023-02-14T22:03:23.946Z,15.23
2023-02-14T22:05:55.187Z,15.20
2023-02-14T22:08:25.059Z,15.43
2023-02-14T22:10:55.202Z,18.20
2023-02-14T22:13:29.869Z,14.70
2023-02-14T22:16:04.682Z,14.23
2023-02-14T22:18:37.738Z,12.77
2023-02-14T22:21:10.049Z,9.87
2023-02-14T22:23:40.825Z,13.43
2023-02-14T22:26:12.775Z,12.10
2023-02-14T22:28:47.171Z,12.87
2023-02-14T22:31:19.188Z,8.60
2023-02-14T22:33:50.179Z,9.57
2023-02-14T22:36:22.385Z,10.47
2023-02-14T22:38:54.887Z,11.77
2023-02-14T22:41:26.956Z,13.33
2023-02-14T22:44:02.012Z,13.33
2023-02-14T22:46:32.112Z,8.13
2023-02-14T22:49:02.223Z,9.70
2023-02-14T22:51:34.870Z,10.27
2023-02-14T22:54:07.417Z,12.30
2023-02-14T22:56:40.789Z,9.83
2023-02-14T22:59:18.286Z,9.67
2023-02-14T23:01:49.544Z,9.03
2023-02-14T23:04:25.031Z,15.03
2023-02-14T23:06:56.532Z,10.10
2023-02-14T23:09:28.437Z,8.73
2023-02-14T23:12:00.725Z,17.57
2023-02-14T23:14:45.597Z,9.67
2023-02-14T23:17:35.794Z,9.97
2023-02-14T23:20:18.326Z,10.60
2023-02-14T23:22:48.967Z,11.13
2023-02-14T23:25:18.998Z,12.00
2023-02-14T23:27:52.272Z,13.17
2023-02-14T23:30:25.064Z,12.13
2023-02-14T23:32:55.738Z,11.50
2023-02-14T23:35:25.713Z,26.83
2023-02-14T23:37:55.583Z,16.17
2023-02-14T23:40:25.478Z,17.07
2023-02-14T23:42:56.653Z,19.83
2023-02-14T23:45:45.049Z,13.77
2023-02-14T23:48:14.947Z,13.87
2023-02-14T23:50:45.253Z,24.53
2023-02-14T23:53:18.120Z,39.50
2023-02-14T23:55:53.964Z,80.77
2023-02-14T23:58:23.840Z,109.13
